createdAt,value
2023-02-17T00:01:29.398Z,15.63
2023-02-17T00:03:59.584Z,14.80
2023-02-17T00:06:29.975Z,14.50
2023-02-17T00:08:59.591Z,14.73
2023-02-17T00:11:28.418Z,15.43
2023-02-17T00:13:57.035Z,14.40
2023-02-17T00:16:27.592Z,13.87
2023-02-17T00:18:59.718Z,14.27
2023-02-17T00:21:29.729Z,13.80
2023-02-17T00:23:58.607Z,14.53
2023-02-17T00:26:27.192Z,15.33
2023-02-17T00:28:56.219Z,13.63
2023-02-17T00:31:25.025Z,13.80
2023-02-17T00:33:56.572Z,14.17
2023-02-17T00:36:27.672Z,15.20
2023-02-17T00:38:57.561Z,15.87
2023-02-17T00:41:26.427Z,15.07
2023-02-17T00:43:55.024Z,17.60
2023-02-17T00:46:23.582Z,16.47
2023-02-17T00:48:52.943Z,16.53
2023-02-17T00:51:21.501Z,17.37
2023-02-17T00:53:51.260Z,16.47
2023-02-17T00:56:19.714Z,15.67
2023-02-17T00:58:48.393Z,15.73
2023-02-17T01:01:16.870Z,15.10
2023-02-17T01:03:45.341Z,13.07
2023-02-17T01:06:22.774Z,14.17
2023-02-17T01:08:52.541Z,13.57
2023-02-17T01:11:21.740Z,13.67
2023-02-17T01:13:50.225Z,13.93
2023-02-17T01:16:21.000Z,13.53
2023-02-17T01:18:49.972Z,14.63
2023-02-17T01:21:19.006Z,13.13
2023-02-17T01:23:47.692Z,13.53
2023-02-17T01:26:19.160Z,13.53
2023-02-17T01:28:47.998Z,11.80
2023-02-17T01:31:16.673Z,11.93
2023-02-17T01:33:45.352Z,12.33
2023-02-17T01:36:15.724Z,11.60
2023-02-17T01:38:48.034Z,12.40
2023-02-17T01:41:18.803Z,12.07
2023-02-17T01:44:10.314Z,11.20
2023-02-17T01:46:39.797Z,11.40
2023-02-17T01:49:25.288Z,11.83
2023-02-17T01:51:57.548Z,12.40
2023-02-17T01:54:31.480Z,11.00
2023-02-17T01:57:03.336Z,10.43
2023-02-17T01:59:32.173Z,11.20
2023-02-17T02:02:04.376Z,10.77
2023-02-17T02:04:36.125Z,12.10
2023-02-17T02:07:05.679Z,13.47
2023-02-17T02:09:38.460Z,12.53
2023-02-17T02:12:19.645Z,13.00
2023-02-17T02:14:49.404Z,14.23
2023-02-17T02:17:27.214Z,14.07
2023-02-17T02:20:27.250Z,13.77
2023-02-17T02:23:10.787Z,14.60
2023-02-17T02:26:05.364Z,11.70
2023-02-17T02:28:52.530Z,12.50
2023-02-17T02:31:30.726Z,13.10
2023-02-17T02:34:04.478Z,12.20
2023-02-17T02:36:38.459Z,12.33
2023-02-17T02:39:12.617Z,12.37
2023-02-17T02:41:45.116Z,11.23
2023-02-17T02:44:16.316Z,11.67
2023-02-17T02:46:44.814Z,11.47
2023-02-17T02:49:14.469Z,11.20
2023-02-17T02:51:50.820Z,9.90
2023-02-17T02:54:37.829Z,10.80
2023-02-17T02:57:21.349Z,8.97
2023-02-17T03:00:02.090Z,9.63
2023-02-17T03:02:35.386Z,8.63
2023-02-17T03:05:12.261Z,9.00
2023-02-17T03:07:46.096Z,8.47
2023-02-17T03:10:15.994Z,7.57
2023-02-17T03:12:44.474Z,7.32
2023-02-17T03:15:19.824Z,6.80
2023-02-17T03:17:48.059Z,5.70
2023-02-17T03:20:18.182Z,6.30
2023-02-17T03:22:48.444Z,6.57
2023-02-17T03:25:17.395Z,5.95
2023-02-17T03:27:45.643Z,6.70
2023-02-17T03:30:14.527Z,6.68
2023-02-17T03:32:42.919Z,7.27
2023-02-17T03:35:11.613Z,4.47
2023-02-17T03:37:41.372Z,5.57
2023-02-17T03:40:11.450Z,6.20
2023-02-17T03:42:39.888Z,4.97
2023-02-17T03:45:08.636Z,5.07
2023-02-17T03:47:37.095Z,5.28
2023-02-17T03:50:05.938Z,5.53
2023-02-17T03:52:34.212Z,5.80
2023-02-17T03:55:04.165Z,5.57
2023-02-17T03:57:34.774Z,5.63
2023-02-17T04:00:04.471Z,5.97
2023-02-17T04:02:32.786Z,5.10
2023-02-17T04:05:01.204Z,5.97
2023-02-17T04:07:29.563Z,5.40
2023-02-17T04:09:58.026Z,5.60
2023-02-17T04:12:27.826Z,5.20
2023-02-17T04:14:56.115Z,5.83
2023-02-17T04:17:24.470Z,5.47
2023-02-17T04:19:53.122Z,5.17
2023-02-17T04:22:21.465Z,4.53
2023-02-17T04:24:50.050Z,6.10
2023-02-17T04:27:18.251Z,6.20
2023-02-17T04:29:47.818Z,5.47
2023-02-17T04:32:16.195Z,5.93
2023-02-17T04:34:44.626Z,5.43
2023-02-17T04:37:13.039Z,4.97
2023-02-17T04:39:41.467Z,6.40
2023-02-17T04:42:09.750Z,5.77
2023-02-17T04:44:38.136Z,5.70
2023-02-17T04:47:07.624Z,6.87
2023-02-17T04:49:36.071Z,6.63
2023-02-17T04:52:04.513Z,5.77
2023-02-17T04:54:32.783Z,6.10
2023-02-17T04:57:01.236Z,5.70
2023-02-17T04:59:29.950Z,5.70
2023-02-17T05:01:58.337Z,6.00
2023-02-17T05:04:28.142Z,5.77
2023-02-17T05:06:56.496Z,5.68
2023-02-17T05:09:24.789Z,5.83
2023-02-17T05:11:53.099Z,6.32
2023-02-17T05:14:21.462Z,5.57
2023-02-17T05:16:49.930Z,5.35
2023-02-17T05:19:18.288Z,6.05
2023-02-17T05:21:47.989Z,4.72
2023-02-17T05:24:16.252Z,5.50
2023-02-17T05:26:44.832Z,5.20
2023-02-17T05:29:13.200Z,4.93
2023-02-17T05:31:41.666Z,4.82
2023-02-17T05:34:10.194Z,4.27
2023-02-17T05:36:38.587Z,3.83
2023-02-17T05:39:09.068Z,4.85
2023-02-17T05:41:37.468Z,3.67
2023-02-17T05:44:06.157Z,4.10
2023-02-17T05:46:34.439Z,4.33
2023-02-17T05:49:02.853Z,4.28
2023-02-17T05:51:31.496Z,4.13
2023-02-17T05:53:59.988Z,4.77
2023-02-17T05:56:29.594Z,3.95
2023-02-17T05:58:58.048Z,4.00
2023-02-17T06:01:26.427Z,4.80
2023-02-17T06:03:55.032Z,4.70
2023-02-17T06:06:23.395Z,4.83
2023-02-17T06:08:51.861Z,3.73
2023-02-17T06:11:20.130Z,5.10
2023-02-17T06:13:49.747Z,4.90
2023-02-17T06:16:18.106Z,5.07
2023-02-17T06:18:47.050Z,5.73
2023-02-17T06:21:15.442Z,5.20
2023-02-17T06:23:43.804Z,5.43
2023-02-17T06:26:12.245Z,5.10
2023-02-17T06:28:40.659Z,5.20
2023-02-17T06:31:10.523Z,5.33
2023-02-17T06:33:39.017Z,6.00
2023-02-17T06:36:08.374Z,5.97
2023-02-17T06:38:36.842Z,5.18
2023-02-17T06:41:05.294Z,4.97
2023-02-17T06:43:33.724Z,5.60
2023-02-17T06:46:02.417Z,4.90
2023-02-17T06:48:33.151Z,5.17
2023-02-17T06:51:02.060Z,5.27
2023-02-17T06:53:30.517Z,4.60
2023-02-17T06:55:58.798Z,3.67
2023-02-17T06:58:27.715Z,5.43
2023-02-17T07:00:56.168Z,4.67
2023-02-17T07:03:24.494Z,4.50
2023-02-17T07:05:58.386Z,4.30
2023-02-17T07:08:26.941Z,4.23
2023-02-17T07:10:55.324Z,4.80
2023-02-17T07:13:23.588Z,4.50
2023-02-17T07:15:51.851Z,4.83
2023-02-17T07:18:20.135Z,5.90
2023-02-17T07:20:48.859Z,5.32
2023-02-17T07:23:18.474Z,4.83
2023-02-17T07:25:46.900Z,6.00
2023-02-17T07:28:15.452Z,5.10
2023-02-17T07:30:44.725Z,6.30
2023-02-17T07:33:12.971Z,5.60
2023-02-17T07:35:43.983Z,5.60
2023-02-17T07:38:13.171Z,6.50
2023-02-17T07:40:42.765Z,6.22
2023-02-17T07:43:11.121Z,7.00
2023-02-17T07:45:39.618Z,6.90
2023-02-17T07:48:08.108Z,6.83
2023-02-17T07:50:36.361Z,6.80
2023-02-17T07:53:04.811Z,6.70
2023-02-17T07:55:33.530Z,6.67
2023-02-17T07:58:03.937Z,6.73
2023-02-17T08:00:32.356Z,6.30
2023-02-17T08:03:00.807Z,5.97
2023-02-17T08:05:29.226Z,5.40
2023-02-17T08:08:11.468Z,6.90
2023-02-17T08:10:57.062Z,5.90
2023-02-17T08:13:27.372Z,6.13
2023-02-17T08:15:55.767Z,4.23
2023-02-17T08:18:24.338Z,5.53
2023-02-17T08:20:53.164Z,5.90
2023-02-17T08:23:21.615Z,7.43
2023-02-17T08:25:49.984Z,7.37
2023-02-17T08:28:18.428Z,7.30
2023-02-17T08:30:48.229Z,6.17
2023-02-17T08:33:18.860Z,5.63
2023-02-17T08:35:47.339Z,5.47
2023-02-17T08:38:15.844Z,6.63
2023-02-17T08:40:44.525Z,6.20
2023-02-17T08:43:13.123Z,6.00
2023-02-17T08:45:41.406Z,5.63
2023-02-17T08:48:11.046Z,5.70
2023-02-17T08:50:39.625Z,5.53
2023-02-17T08:53:08.053Z,5.53
2023-02-17T08:55:48.595Z,5.67
2023-02-17T08:58:17.646Z,6.03
2023-02-17T09:00:46.168Z,5.37
2023-02-17T09:03:16.046Z,5.17
2023-02-17T09:05:44.508Z,5.03
2023-02-17T09:08:12.909Z,5.60
2023-02-17T09:10:41.265Z,5.53
2023-02-17T09:13:09.720Z,5.65
2023-02-17T09:15:38.109Z,5.68
2023-02-17T09:18:06.790Z,6.03
2023-02-17T09:20:36.943Z,5.70
2023-02-17T09:23:05.408Z,6.07
2023-02-17T09:25:34.587Z,6.40
2023-02-17T09:28:03.612Z,6.40
2023-02-17T09:30:32.247Z,5.50
2023-02-17T09:33:00.778Z,5.70
2023-02-17T09:35:29.321Z,7.80
2023-02-17T09:37:59.363Z,5.93
2023-02-17T09:40:39.508Z,6.53
2023-02-17T09:43:12.195Z,6.27
2023-02-17T09:45:40.968Z,5.83
2023-02-17T09:48:12.903Z,6.27
2023-02-17T09:50:45.881Z,8.07
2023-02-17T09:53:23.383Z,9.87
2023-02-17T09:55:55.103Z,10.10
2023-02-17T09:58:27.190Z,10.57
2023-02-17T10:00:59.193Z,8.43
2023-02-17T10:03:32.668Z,8.57
2023-02-17T10:06:12.939Z,9.23
2023-02-17T10:08:47.811Z,11.77
2023-02-17T10:11:23.246Z,10.45
2023-02-17T10:13:54.242Z,8.10
2023-02-17T10:16:26.405Z,6.30
2023-02-17T10:19:00.170Z,7.23
2023-02-17T10:21:32.335Z,6.07
2023-02-17T10:24:01.973Z,6.17
2023-02-17T10:26:47.385Z,5.85
2023-02-17T10:29:25.841Z,8.00
2023-02-17T10:32:06.887Z,7.90
2023-02-17T10:34:38.077Z,7.80
2023-02-17T10:37:12.813Z,8.35
2023-02-17T10:39:50.185Z,9.77
2023-02-17T10:42:23.203Z,8.93
2023-02-17T10:44:53.486Z,9.07
2023-02-17T10:47:23.349Z,8.90
2023-02-17T10:49:54.054Z,8.87
2023-02-17T10:52:24.416Z,7.67
2023-02-17T10:54:59.891Z,7.53
2023-02-17T10:57:33.872Z,7.00
2023-02-17T11:00:02.793Z,7.03
2023-02-17T11:02:38.141Z,7.90
2023-02-17T11:05:07.373Z,6.60
2023-02-17T11:07:38.444Z,5.73
2023-02-17T11:10:23.112Z,6.65
2023-02-17T11:12:52.300Z,7.00
2023-02-17T11:15:23.145Z,7.15
2023-02-17T11:17:52.314Z,7.13
2023-02-17T11:20:36.966Z,9.07
2023-02-17T11:23:23.268Z,7.75
2023-02-17T11:26:02.400Z,9.47
2023-02-17T11:28:30.910Z,9.63
2023-02-17T11:31:02.647Z,10.23
2023-02-17T11:33:34.608Z,8.20
2023-02-17T11:36:04.126Z,7.70
2023-02-17T11:38:44.911Z,6.90
2023-02-17T11:41:14.676Z,6.43
2023-02-17T11:43:53.773Z,5.03
2023-02-17T11:46:28.174Z,3.77
2023-02-17T11:49:26.786Z,3.00
2023-02-17T11:52:06.502Z,3.30
2023-02-17T11:54:44.486Z,3.47
2023-02-17T11:57:25.573Z,2.83
2023-02-17T12:00:05.789Z,3.43
2023-02-17T12:02:50.030Z,3.10
2023-02-17T12:05:26.529Z,3.00
2023-02-17T12:08:06.069Z,1.90
2023-02-17T12:10:48.746Z,1.60
2023-02-17T12:13:29.661Z,2.58
2023-02-17T12:16:13.165Z,3.50
2023-02-17T12:18:55.053Z,3.40
2023-02-17T12:21:37.313Z,3.10
2023-02-17T12:24:42.352Z,2.93
2023-02-17T12:27:23.875Z,2.60
2023-02-17T12:30:12.084Z,2.50
2023-02-17T12:32:55.918Z,2.65
2023-02-17T12:35:27.076Z,1.88
2023-02-17T12:37:59.445Z,2.17
2023-02-17T12:40:36.037Z,2.25
2023-02-17T12:43:10.103Z,2.13
2023-02-17T12:45:43.843Z,1.98
2023-02-17T12:48:17.469Z,2.17
2023-02-17T12:50:54.073Z,2.85
2023-02-17T12:53:35.059Z,3.00
2023-02-17T12:56:08.427Z,2.92
2023-02-17T12:58:37.483Z,3.70
2023-02-17T13:01:11.737Z,3.28
2023-02-17T13:03:40.749Z,4.60
2023-02-17T13:06:20.980Z,4.90
2023-02-17T13:08:55.756Z,4.53
2023-02-17T13:11:28.914Z,5.40
2023-02-17T13:13:58.436Z,5.35
2023-02-17T13:16:28.623Z,5.70
2023-02-17T13:19:07.835Z,5.20
2023-02-17T13:21:36.230Z,4.73
2023-02-17T13:24:07.401Z,5.70
2023-02-17T13:26:36.799Z,6.35
2023-02-17T13:29:34.437Z,6.33
2023-02-17T13:32:06.718Z,5.63
2023-02-17T13:34:37.635Z,4.78
2023-02-17T13:37:19.308Z,5.65
2023-02-17T13:39:48.211Z,5.57
2023-02-17T13:42:37.263Z,5.07
2023-02-17T13:45:17.542Z,6.87
2023-02-17T13:47:48.757Z,7.33
2023-02-17T13:50:32.463Z,6.03
2023-02-17T13:53:01.845Z,5.50
2023-02-17T13:55:30.619Z,5.67
2023-02-17T13:58:00.667Z,6.07
2023-02-17T14:00:31.684Z,4.70
2023-02-17T14:03:12.259Z,4.00
2023-02-17T14:05:44.549Z,6.03
2023-02-17T14:08:18.247Z,6.07
2023-02-17T14:10:47.244Z,5.87
2023-02-17T14:13:16.007Z,4.97
2023-02-17T14:15:58.619Z,4.20
2023-02-17T14:18:34.858Z,4.27
2023-02-17T14:21:24.172Z,3.90
2023-02-17T14:23:55.179Z,4.93
2023-02-17T14:26:32.180Z,5.07
2023-02-17T14:29:01.973Z,5.67
2023-02-17T14:31:30.681Z,5.70
2023-02-17T14:34:05.064Z,4.87
2023-02-17T14:36:35.825Z,4.23
2023-02-17T14:39:06.125Z,3.80
2023-02-17T14:41:35.227Z,4.07
2023-02-17T14:44:04.040Z,3.57
2023-02-17T14:46:32.606Z,3.60
2023-02-17T14:49:03.656Z,2.78
2023-02-17T14:51:35.394Z,3.90
2023-02-17T14:54:05.056Z,3.13
2023-02-17T14:56:37.501Z,3.80
2023-02-17T14:59:06.391Z,3.70
2023-02-17T15:01:34.814Z,3.53
2023-02-17T15:04:04.347Z,3.83
2023-02-17T15:06:39.293Z,4.37
2023-02-17T15:09:12.411Z,5.07
2023-02-17T15:11:42.517Z,5.80
2023-02-17T15:14:15.650Z,5.80
2023-02-17T15:16:44.047Z,6.40
2023-02-17T15:19:14.989Z,6.33
2023-02-17T15:21:46.869Z,6.20
2023-02-17T15:24:18.375Z,7.00
2023-02-17T15:26:48.159Z,7.27
2023-02-17T15:29:18.039Z,9.07
2023-02-17T15:31:47.195Z,7.73
2023-02-17T15:34:19.337Z,5.10
2023-02-17T15:36:48.098Z,6.80
2023-02-17T15:39:18.901Z,6.40
2023-02-17T15:41:48.441Z,6.03
2023-02-17T15:44:19.697Z,6.23
2023-02-17T15:46:50.985Z,5.88
2023-02-17T15:49:20.641Z,6.28
2023-02-17T15:51:48.986Z,6.35
2023-02-17T15:54:19.386Z,5.45
2023-02-17T15:56:50.017Z,6.28
2023-02-17T15:59:20.618Z,5.27
2023-02-17T16:01:49.126Z,5.87
2023-02-17T16:04:17.532Z,5.80
2023-02-17T16:06:47.275Z,5.80
2023-02-17T16:09:16.412Z,5.75
2023-02-17T16:11:49.401Z,6.33
2023-02-17T16:14:24.982Z,6.40
2023-02-17T16:16:53.547Z,6.50
2023-02-17T16:19:22.458Z,6.60
2023-02-17T16:21:51.981Z,7.47
2023-02-17T16:24:20.473Z,7.77
2023-02-17T16:26:49.061Z,7.20
2023-02-17T16:29:19.662Z,7.20
2023-02-17T16:31:48.737Z,7.47
2023-02-17T16:34:19.707Z,7.47
2023-02-17T16:36:49.602Z,7.47
2023-02-17T16:39:21.261Z,7.47
2023-02-17T16:41:50.695Z,6.90
2023-02-17T16:44:20.797Z,6.87
2023-02-17T16:46:50.708Z,6.67
2023-02-17T16:49:24.543Z,6.80
2023-02-17T16:51:53.120Z,7.07
2023-02-17T16:54:22.768Z,7.07
2023-02-17T16:56:52.685Z,8.00
2023-02-17T16:59:23.152Z,7.23
2023-02-17T17:01:53.181Z,8.67
2023-02-17T17:04:21.856Z,7.97
2023-02-17T17:06:51.583Z,10.10
2023-02-17T17:09:23.770Z,9.80
2023-02-17T17:11:52.480Z,10.80
2023-02-17T17:14:21.873Z,8.60
2023-02-17T17:16:53.821Z,8.67
2023-02-17T17:19:22.450Z,11.63
2023-02-17T17:21:51.278Z,10.00
2023-02-17T17:24:19.839Z,9.53
2023-02-17T17:26:51.654Z,9.67
2023-02-17T17:29:20.987Z,9.20
2023-02-17T17:31:49.624Z,11.70
2023-02-17T17:34:18.152Z,11.97
2023-02-17T17:36:48.170Z,11.93
2023-02-17T17:39:18.952Z,14.77
2023-02-17T17:41:48.958Z,16.43
2023-02-17T17:44:18.009Z,18.10
2023-02-17T17:46:46.620Z,19.40
2023-02-17T17:49:17.907Z,20.50
2023-02-17T17:51:46.600Z,15.93
2023-02-17T17:54:15.029Z,17.97
2023-02-17T17:56:44.780Z,16.53
2023-02-17T17:59:15.142Z,19.30
2023-02-17T18:01:45.702Z,19.77
2023-02-17T18:04:14.401Z,19.97
2023-02-17T18:06:45.296Z,20.77
2023-02-17T18:09:30.608Z,21.60
2023-02-17T18:12:02.543Z,23.83
2023-02-17T18:14:33.197Z,22.37
2023-02-17T18:17:01.831Z,23.03
2023-02-17T18:19:31.543Z,22.67
2023-02-17T18:21:59.922Z,24.17
2023-02-17T18:24:28.736Z,25.00
2023-02-17T18:26:57.208Z,25.50
2023-02-17T18:29:25.587Z,24.40
2023-02-17T18:31:55.336Z,27.13
2023-02-17T18:34:23.937Z,26.60
2023-02-17T18:36:52.397Z,26.83
2023-02-17T18:39:20.813Z,25.53
2023-02-17T18:41:49.208Z,26.20
2023-02-17T18:44:17.638Z,26.37
2023-02-17T18:46:46.033Z,27.10
2023-02-17T18:49:15.796Z,26.60
2023-02-17T18:51:44.191Z,26.30
2023-02-17T18:54:12.917Z,22.33
2023-02-17T18:56:41.398Z,23.37
2023-02-17T18:59:10.140Z,21.27
2023-02-17T19:01:40.931Z,24.67
2023-02-17T19:04:11.876Z,23.57
2023-02-17T19:06:41.925Z,23.87
2023-02-17T19:09:10.425Z,20.83
2023-02-17T19:11:39.265Z,20.27
2023-02-17T19:14:07.769Z,20.87
2023-02-17T19:16:36.127Z,22.60
2023-02-17T19:19:04.906Z,23.53
2023-02-17T19:21:36.261Z,28.07
2023-02-17T19:24:06.339Z,22.67
2023-02-17T19:26:34.709Z,25.00
2023-02-17T19:29:03.117Z,23.50
2023-02-17T19:31:32.381Z,22.27
2023-02-17T19:34:00.878Z,22.47
2023-02-17T19:36:29.315Z,25.37
2023-02-17T19:38:59.017Z,26.50
2023-02-17T19:41:28.748Z,24.37
2023-02-17T19:43:58.972Z,27.87
2023-02-17T19:46:28.259Z,24.63
2023-02-17T19:48:56.585Z,23.67
2023-02-17T19:51:25.003Z,22.83
2023-02-17T19:53:53.463Z,23.27
2023-02-17T19:56:23.897Z,26.10
2023-02-17T19:58:54.211Z,23.07
2023-02-17T20:01:24.590Z,28.13
2023-02-17T20:03:55.142Z,25.67
2023-02-17T20:06:26.630Z,24.30
2023-02-17T20:08:56.936Z,23.27
2023-02-17T20:11:25.981Z,21.83
2023-02-17T20:13:55.942Z,26.93
2023-02-17T20:16:24.324Z,25.03
2023-02-17T20:18:55.224Z,25.60
2023-02-17T20:21:28.125Z,23.40
2023-02-17T20:23:57.334Z,24.33
2023-02-17T20:26:27.520Z,23.10
2023-02-17T20:28:57.739Z,19.70
2023-02-17T20:31:26.820Z,25.47
2023-02-17T20:33:55.579Z,29.73
2023-02-17T20:36:25.048Z,24.87
2023-02-17T20:38:53.723Z,27.43
2023-02-17T20:41:23.917Z,25.20
2023-02-17T20:43:52.686Z,24.33
2023-02-17T20:46:26.002Z,24.27
2023-02-17T20:48:54.808Z,26.33
2023-02-17T20:51:23.243Z,26.90
2023-02-17T20:53:52.217Z,29.70
2023-02-17T20:56:23.252Z,26.80
2023-02-17T20:58:53.329Z,31.43
2023-02-17T21:01:22.943Z,28.97
2023-02-17T21:03:51.430Z,29.77
2023-02-17T21:06:23.206Z,31.40
2023-02-17T21:08:52.689Z,30.77
2023-02-17T21:11:21.313Z,34.87
2023-02-17T21:13:50.238Z,32.80
2023-02-17T21:16:23.784Z,34.73
2023-02-17T21:18:52.697Z,42.00
2023-02-17T21:21:20.983Z,39.73
2023-02-17T21:23:49.354Z,37.37
2023-02-17T21:26:18.264Z,38.43
2023-02-17T21:28:47.387Z,45.20
2023-02-17T21:31:16.910Z,42.53
2023-02-17T21:33:46.575Z,39.63
2023-02-17T21:36:16.577Z,40.33
2023-02-17T21:38:45.760Z,42.13
2023-02-17T21:41:16.869Z,38.80
2023-02-17T21:44:02.976Z,37.97
2023-02-17T21:46:31.534Z,41.83
2023-02-17T21:49:02.289Z,38.17
2023-02-17T21:51:31.133Z,39.67
2023-02-17T21:54:00.254Z,39.73
2023-02-17T21:56:28.489Z,36.80
2023-02-17T21:58:57.464Z,35.20
2023-02-17T22:01:27.322Z,31.03
2023-02-17T22:03:56.162Z,32.27
2023-02-17T22:06:27.671Z,33.60
2023-02-17T22:08:56.602Z,29.93
2023-02-17T22:11:26.406Z,31.07
2023-02-17T22:13:56.327Z,32.40
2023-02-17T22:16:25.323Z,32.03
2023-02-17T22:18:54.254Z,32.93
2023-02-17T22:21:22.720Z,30.03
2023-02-17T22:23:52.307Z,31.47
2023-02-17T22:26:23.311Z,32.43
2023-02-17T22:28:52.361Z,32.40
2023-02-17T22:31:22.668Z,31.80
2023-02-17T22:33:51.492Z,31.97
2023-02-17T22:36:22.176Z,31.60
2023-02-17T22:38:52.598Z,30.63
2023-02-17T22:41:22.188Z,29.23
2023-02-17T22:43:51.593Z,28.77
2023-02-17T22:46:21.784Z,27.70
2023-02-17T22:48:51.840Z,31.33
2023-02-17T22:51:21.935Z,31.27
2023-02-17T22:53:51.769Z,31.57
2023-02-17T22:56:20.510Z,30.27
2023-02-17T22:58:53.795Z,29.10
2023-02-17T23:01:22.584Z,29.10
2023-02-17T23:03:53.927Z,28.50
2023-02-17T23:06:25.541Z,29.93
2023-02-17T23:08:56.040Z,29.93
2023-02-17T23:11:40.924Z,28.30
2023-02-17T23:14:09.309Z,26.17
2023-02-17T23:16:37.921Z,25.57
2023-02-17T23:19:10.031Z,25.47
2023-02-17T23:21:38.930Z,24.87
2023-02-17T23:24:09.184Z,21.03
2023-02-17T23:26:37.619Z,22.47
2023-02-17T23:29:06.238Z,21.67
2023-02-17T23:31:34.739Z,21.37
2023-02-17T23:34:03.204Z,23.57
2023-02-17T23:36:32.190Z,24.73
2023-02-17T23:39:02.192Z,23.00
2023-02-17T23:41:31.734Z,21.83
2023-02-17T23:44:00.594Z,21.20
2023-02-17T23:46:30.240Z,18.87
2023-02-17T23:48:58.663Z,17.13
2023-02-17T23:51:27.031Z,17.27
2023-02-17T23:53:55.536Z,16.60
2023-02-17T23:56:26.823Z,16.60
2023-02-17T23:58:56.725Z,16.80
